sensor_id;sensor_type;location;lat;lon;timestamp;pressure;altitude;pressure_sealevel;temperature;humidity
65190;BME280;51777;53.570;9.984;2023-01-19T00:01:21;99496.72;;;1.73;100.00
65190;BME280;51777;53.570;9.984;2023-01-19T00:03:47;99502.88;;;1.71;100.00
65190;BME280;51777;53.570;9.984;2023-01-19T00:06:12;99507.84;;;1.72;100.00
65190;BME280;51777;53.570;9.984;2023-01-19T00:08:38;99501.81;;;1.73;100.00
65190;BME280;51777;53.570;9.984;2023-01-19T00:11:04;99504.97;;;1.77;100.00
65190;BME280;51777;53.570;9.984;2023-01-19T00:13:32;99501.47;;;1.78;100.00
65190;BME280;51777;53.570;9.984;2023-01-19T00:16:08;99502.97;;;1.81;100.00
65190;BME280;51777;53.570;9.984;2023-01-19T00:18:34;99500.41;;;1.81;100.00
65190;BME280;51777;53.570;9.984;2023-01-19T00:20:59;99499.97;;;1.87;100.00
65190;BME280;51777;53.570;9.984;2023-01-19T00:23:25;99501.44;;;1.89;100.00
65190;BME280;51777;53.570;9.984;2023-01-19T00:25:50;99497.28;;;1.88;100.00
65190;BME280;51777;53.570;9.984;2023-01-19T00:28:17;99495.53;;;1.89;100.00
65190;BME280;51777;53.570;9.984;2023-01-19T00:30:43;99499.03;;;1.88;100.00
65190;BME280;51777;53.570;9.984;2023-01-19T00:33:12;99502.13;;;1.91;100.00
65190;BME280;51777;53.570;9.984;2023-01-19T00:35:41;99508.97;;;1.91;100.00
65190;BME280;51777;53.570;9.984;2023-01-19T00:38:07;99499.34;;;1.94;100.00
65190;BME280;51777;53.570;9.984;2023-01-19T00:40:32;99500.69;;;1.98;100.00
65190;BME280;51777;53.570;9.984;2023-01-19T00:43:01;99500.47;;;2.01;100.00
65190;BME280;51777;53.570;9.984;2023-01-19T00:45:28;99502.91;;;2.03;100.00
65190;BME280;51777;53.570;9.984;2023-01-19T00:47:53;99507.75;;;2.06;100.00
65190;BME280;51777;53.570;9.984;2023-01-19T00:50:22;99506.00;;;2.06;100.00
65190;BME280;51777;53.570;9.984;2023-01-19T00:52:48;99510.84;;;2.10;100.00
65190;BME280;51777;53.570;9.984;2023-01-19T00:55:14;99505.53;;;2.13;100.00
65190;BME280;51777;53.570;9.984;2023-01-19T00:57:41;99498.69;;;2.13;100.00
65190;BME280;51777;53.570;9.984;2023-01-19T01:00:22;99510.50;;;2.14;100.00
65190;BME280;51777;53.570;9.984;2023-01-19T01:02:50;99507.03;;;2.15;100.00
65190;BME280;51777;53.570;9.984;2023-01-19T01:05:19;99515.63;;;2.14;100.00
65190;BME280;51777;53.570;9.984;2023-01-19T01:07:44;99515.38;;;2.17;100.00
65190;BME280;51777;53.570;9.984;2023-01-19T01:10:25;99521.03;;;2.21;100.00
65190;BME280;51777;53.570;9.984;2023-01-19T01:12:54;99520.22;;;2.20;100.00
65190;BME280;51777;53.570;9.984;2023-01-19T01:15:23;99520.00;;;2.23;100.00
65190;BME280;51777;53.570;9.984;2023-01-19T01:17:53;99518.34;;;2.22;100.00
65190;BME280;51777;53.570;9.984;2023-01-19T01:20:27;99520.00;;;2.23;100.00
65190;BME280;51777;53.570;9.984;2023-01-19T01:22:55;99515.91;;;2.21;100.00
65190;BME280;51777;53.570;9.984;2023-01-19T01:25:25;99523.22;;;2.25;100.00
65190;BME280;51777;53.570;9.984;2023-01-19T01:27:53;99518.94;;;2.26;100.00
65190;BME280;51777;53.570;9.984;2023-01-19T01:30:19;99506.97;;;2.26;100.00
65190;BME280;51777;53.570;9.984;2023-01-19T01:32:45;99514.50;;;2.28;100.00
65190;BME280;51777;53.570;9.984;2023-01-19T01:35:11;99508.59;;;2.27;100.00
65190;BME280;51777;53.570;9.984;2023-01-19T01:37:36;99511.97;;;2.28;100.00
65190;BME280;51777;53.570;9.984;2023-01-19T01:40:04;99513.69;;;2.27;100.00
65190;BME280;51777;53.570;9.984;2023-01-19T01:42:31;99524.59;;;2.29;100.00
65190;BME280;51777;53.570;9.984;2023-01-19T01:44:58;99519.47;;;2.29;100.00
65190;BME280;51777;53.570;9.984;2023-01-19T01:50:10;99518.16;;;2.35;100.00
65190;BME280;51777;53.570;9.984;2023-01-19T01:52:41;99499.50;;;2.34;100.00
65190;BME280;51777;53.570;9.984;2023-01-19T01:55:09;99510.41;;;2.37;100.00
65190;BME280;51777;53.570;9.984;2023-01-19T01:57:41;99506.22;;;2.35;100.00
65190;BME280;51777;53.570;9.984;2023-01-19T02:00:11;99503.31;;;2.40;100.00
65190;BME280;51777;53.570;9.984;2023-01-19T02:02:37;99499.84;;;2.41;100.00
65190;BME280;51777;53.570;9.984;2023-01-19T02:05:27;99501.59;;;2.41;100.00
65190;BME280;51777;53.570;9.984;2023-01-19T02:10:47;99504.13;;;2.41;100.00
65190;BME280;51777;53.570;9.984;2023-01-19T02:13:34;99501.44;;;2.42;100.00
65190;BME280;51777;53.570;9.984;2023-01-19T02:16:04;99506.44;;;2.44;100.00
65190;BME280;51777;53.570;9.984;2023-01-19T02:18:31;99500.84;;;2.50;100.00
65190;BME280;51777;53.570;9.984;2023-01-19T02:21:56;99495.97;;;2.47;100.00
65190;BME280;51777;53.570;9.984;2023-01-19T02:23:56;99508.72;;;2.47;100.00
65190;BME280;51777;53.570;9.984;2023-01-19T02:26:27;99503.88;;;2.44;100.00
65190;BME280;51777;53.570;9.984;2023-01-19T02:28:57;99495.16;;;2.46;100.00
65190;BME280;51777;53.570;9.984;2023-01-19T02:31:24;99495.97;;;2.47;100.00
65190;BME280;51777;53.570;9.984;2023-01-19T02:33:50;99489.63;;;2.41;100.00
65190;BME280;51777;53.570;9.984;2023-01-19T02:36:21;99491.25;;;2.42;100.00
65190;BME280;51777;53.570;9.984;2023-01-19T02:38:50;99485.22;;;2.43;100.00
65190;BME280;51777;53.570;9.984;2023-01-19T02:41:19;99484.03;;;2.47;100.00
65190;BME280;51777;53.570;9.984;2023-01-19T02:43:47;99493.41;;;2.47;100.00
65190;BME280;51777;53.570;9.984;2023-01-19T02:46:14;99493.41;;;2.47;100.00
65190;BME280;51777;53.570;9.984;2023-01-19T02:48:40;99492.75;;;2.45;100.00
65190;BME280;51777;53.570;9.984;2023-01-19T02:51:24;99494.81;;;2.51;100.00
65190;BME280;51777;53.570;9.984;2023-01-19T03:04:24;99492.00;;;2.54;100.00
65190;BME280;51777;53.570;9.984;2023-01-19T03:09:42;99490.56;;;2.61;100.00
65190;BME280;51777;53.570;9.984;2023-01-19T03:15:07;99495.91;;;2.58;100.00
65190;BME280;51777;53.570;9.984;2023-01-19T03:17:34;99491.06;;;2.55;100.00
65190;BME280;51777;53.570;9.984;2023-01-19T03:20:04;99489.44;;;2.54;100.00
65190;BME280;51777;53.570;9.984;2023-01-19T03:22:31;99495.34;;;2.54;100.00
65190;BME280;51777;53.570;9.984;2023-01-19T03:24:59;99490.13;;;2.56;100.00
65190;BME280;51777;53.570;9.984;2023-01-19T03:27:28;99496.59;;;2.60;100.00
65190;BME280;51777;53.570;9.984;2023-01-19T03:29:58;99494.97;;;2.59;100.00
65190;BME280;51777;53.570;9.984;2023-01-19T03:32:34;99485.56;;;2.59;100.00
65190;BME280;51777;53.570;9.984;2023-01-19T03:35:04;99494.75;;;2.62;100.00
65190;BME280;51777;53.570;9.984;2023-01-19T03:37:33;99494.63;;;2.63;100.00
65190;BME280;51777;53.570;9.984;2023-01-19T03:40:01;99491.25;;;2.63;100.00
65190;BME280;51777;53.570;9.984;2023-01-19T03:42:27;99500.66;;;2.62;100.00
65190;BME280;51777;53.570;9.984;2023-01-19T03:44:54;99493.22;;;2.59;100.00
65190;BME280;51777;53.570;9.984;2023-01-19T03:47:21;99507.84;;;2.57;100.00
65190;BME280;51777;53.570;9.984;2023-01-19T03:49:48;99494.28;;;2.57;100.00
65190;BME280;51777;53.570;9.984;2023-01-19T03:52:14;99504.38;;;2.58;100.00
65190;BME280;51777;53.570;9.984;2023-01-19T03:54:40;99503.00;;;2.54;100.00
65190;BME280;51777;53.570;9.984;2023-01-19T03:57:06;99509.72;;;2.55;100.00
65190;BME280;51777;53.570;9.984;2023-01-19T03:59:31;99506.13;;;2.58;100.00
65190;BME280;51777;53.570;9.984;2023-01-19T04:01:56;99497.91;;;2.54;100.00
65190;BME280;51777;53.570;9.984;2023-01-19T04:04:22;99496.16;;;2.55;100.00
65190;BME280;51777;53.570;9.984;2023-01-19T04:06:47;99497.09;;;2.54;100.00
65190;BME280;51777;53.570;9.984;2023-01-19T04:09:13;99502.75;;;2.57;100.00
65190;BME280;51777;53.570;9.984;2023-01-19T04:11:38;99496.72;;;2.58;100.00
65190;BME280;51777;53.570;9.984;2023-01-19T04:14:04;99499.25;;;2.58;100.00
65190;BME280;51777;53.570;9.984;2023-01-19T04:16:29;99498.47;;;2.58;100.00
65190;BME280;51777;53.570;9.984;2023-01-19T04:18:54;99498.47;;;2.58;100.00
65190;BME280;51777;53.570;9.984;2023-01-19T04:21:20;99496.84;;;2.57;100.00
65190;BME280;51777;53.570;9.984;2023-01-19T04:23:46;99499.41;;;2.57;100.00
65190;BME280;51777;53.570;9.984;2023-01-19T04:26:11;99495.78;;;2.59;100.00
65190;BME280;51777;53.570;9.984;2023-01-19T04:28:37;99502.63;;;2.59;100.00
65190;BME280;51777;53.570;9.984;2023-01-19T04:31:04;99496.34;;;2.63;100.00
65190;BME280;51777;53.570;9.984;2023-01-19T04:33:29;99490.44;;;2.62;100.00
65190;BME280;51777;53.570;9.984;2023-01-19T04:35:55;99495.78;;;2.59;100.00
65190;BME280;51777;53.570;9.984;2023-01-19T04:38:22;99489.44;;;2.54;100.00
65190;BME280;51777;53.570;9.984;2023-01-19T04:40:48;99492.25;;;2.51;100.00
65190;BME280;51777;53.570;9.984;2023-01-19T04:43:15;99498.03;;;2.53;100.00
65190;BME280;51777;53.570;9.984;2023-01-19T04:45:40;99495.22;;;2.56;100.00
65190;BME280;51777;53.570;9.984;2023-01-19T04:48:08;99494.16;;;2.58;100.00
65190;BME280;51777;53.570;9.984;2023-01-19T04:50:33;99492.31;;;2.60;100.00
65190;BME280;51777;53.570;9.984;2023-01-19T04:52:58;99492.00;;;2.54;100.00
65190;BME280;51777;53.570;9.984;2023-01-19T04:55:24;99495.91;;;2.58;100.00
65190;BME280;51777;53.570;9.984;2023-01-19T04:57:50;99502.75;;;2.57;100.00
65190;BME280;51777;53.570;9.984;2023-01-19T05:00:16;99507.97;;;2.56;100.00
65190;BME280;51777;53.570;9.984;2023-01-19T05:02:41;99502.19;;;2.54;100.00
65190;BME280;51777;53.570;9.984;2023-01-19T05:05:09;99506.78;;;2.60;100.00
65190;BME280;51777;53.570;9.984;2023-01-19T05:07:35;99507.97;;;2.56;100.00
65190;BME280;51777;53.570;9.984;2023-01-19T05:10:01;99507.84;;;2.57;100.00
65190;BME280;51777;53.570;9.984;2023-01-19T05:12:26;99519.69;;;2.58;100.00
65190;BME280;51777;53.570;9.984;2023-01-19T05:14:52;99522.94;;;2.60;100.00
65190;BME280;51777;53.570;9.984;2023-01-19T05:17:17;99518.38;;;2.64;100.00
65190;BME280;51777;53.570;9.984;2023-01-19T05:19:42;99519.75;;;2.68;100.00
65190;BME280;51777;53.570;9.984;2023-01-19T05:22:08;99517.31;;;2.67;100.00
65190;BME280;51777;53.570;9.984;2023-01-19T05:24:33;99522.09;;;2.60;100.00
65190;BME280;51777;53.570;9.984;2023-01-19T05:26:59;99527.78;;;2.63;100.00
65190;BME280;51777;53.570;9.984;2023-01-19T05:29:25;99529.75;;;2.60;100.00
65190;BME280;51777;53.570;9.984;2023-01-19T05:31:50;99522.34;;;2.57;100.00
65190;BME280;51777;53.570;9.984;2023-01-19T05:34:16;99529.88;;;2.58;100.00
65190;BME280;51777;53.570;9.984;2023-01-19T05:36:41;99536.31;;;2.53;100.00
65190;BME280;51777;53.570;9.984;2023-01-19T05:39:07;99534.94;;;2.49;100.00
65190;BME280;51777;53.570;9.984;2023-01-19T05:41:33;99533.88;;;2.51;100.00
65190;BME280;51777;53.570;9.984;2023-01-19T05:43:58;99532.69;;;2.55;100.00
65190;BME280;51777;53.570;9.984;2023-01-19T05:46:23;99533.06;;;2.51;100.00
65190;BME280;51777;53.570;9.984;2023-01-19T05:48:49;99532.81;;;2.54;100.00
65190;BME280;51777;53.570;9.984;2023-01-19T05:51:15;99536.06;;;2.56;100.00
65190;BME280;51777;53.570;9.984;2023-01-19T05:53:41;99528.84;;;2.61;100.00
65190;BME280;51777;53.570;9.984;2023-01-19T05:56:08;99527.19;;;2.60;100.00
65190;BME280;51777;53.570;9.984;2023-01-19T05:58:35;99531.41;;;2.61;100.00
65190;BME280;51777;53.570;9.984;2023-01-19T06:01:05;99527.53;;;2.67;100.00
65190;BME280;51777;53.570;9.984;2023-01-19T06:03:33;99528.09;;;2.70;100.00
65190;BME280;51777;53.570;9.984;2023-01-19T06:06:00;99530.09;;;2.67;100.00
65190;BME280;51777;53.570;9.984;2023-01-19T06:08:25;99530.75;;;2.69;100.00
65190;BME280;51777;53.570;9.984;2023-01-19T06:10:51;99531.16;;;2.64;100.00
65190;BME280;51777;53.570;9.984;2023-01-19T06:13:16;99525.09;;;2.65;100.00
65190;BME280;51777;53.570;9.984;2023-01-19T06:15:42;99539.34;;;2.68;100.00
65190;BME280;51777;53.570;9.984;2023-01-19T06:18:09;99536.94;;;2.66;100.00
65190;BME280;51777;53.570;9.984;2023-01-19T06:20:35;99538.66;;;2.65;100.00
65190;BME280;51777;53.570;9.984;2023-01-19T06:23:01;99539.22;;;2.69;100.00
65190;BME280;51777;53.570;9.984;2023-01-19T06:25:27;99538.81;;;2.64;100.00
65190;BME280;51777;53.570;9.984;2023-01-19T06:27:52;99536.59;;;2.59;100.00
65190;BME280;51777;53.570;9.984;2023-01-19T06:30:18;99539.97;;;2.60;100.00
65190;BME280;51777;53.570;9.984;2023-01-19T06:32:44;99540.41;;;2.65;100.00
65190;BME280;51777;53.570;9.984;2023-01-19T06:35:09;99539.06;;;2.61;100.00
65190;BME280;51777;53.570;9.984;2023-01-19T06:37:35;99551.56;;;2.64;100.00
65190;BME280;51777;53.570;9.984;2023-01-19T06:40:01;99549.75;;;2.55;100.00
65190;BME280;51777;53.570;9.984;2023-01-19T06:42:26;99554.59;;;2.58;100.00
65190;BME280;51777;53.570;9.984;2023-01-19T06:44:52;99552.72;;;2.60;100.00
65190;BME280;51777;53.570;9.984;2023-01-19T06:47:17;99554.84;;;2.55;100.00
65190;BME280;51777;53.570;9.984;2023-01-19T06:49:44;99562.19;;;2.48;100.00
65190;BME280;51777;53.570;9.984;2023-01-19T06:52:10;99561.25;;;2.49;100.00
65190;BME280;51777;53.570;9.984;2023-01-19T06:54:36;99567.03;;;2.51;100.00
65190;BME280;51777;53.570;9.984;2023-01-19T06:57:02;99569.94;;;2.47;100.00
65190;BME280;51777;53.570;9.984;2023-01-19T06:59:28;99581.88;;;2.46;100.00
65190;BME280;51777;53.570;9.984;2023-01-19T07:01:53;99582.47;;;2.50;100.00
65190;BME280;51777;53.570;9.984;2023-01-19T07:04:20;99591.63;;;2.52;100.00
65190;BME280;51777;53.570;9.984;2023-01-19T07:06:46;99590.94;;;2.50;100.00
65190;BME280;51777;53.570;9.984;2023-01-19T07:09:11;99597.53;;;2.53;100.00
65190;BME280;51777;53.570;9.984;2023-01-19T07:11:37;99604.72;;;2.48;100.00
65190;BME280;51777;53.570;9.984;2023-01-19T07:14:03;99604.03;;;2.46;100.00
65190;BME280;51777;53.570;9.984;2023-01-19T07:16:28;99609.81;;;2.48;100.00
65190;BME280;51777;53.570;9.984;2023-01-19T07:18:54;99604.72;;;2.48;100.00
65190;BME280;51777;53.570;9.984;2023-01-19T07:21:20;99610.06;;;2.45;100.00
65190;BME280;51777;53.570;9.984;2023-01-19T07:23:52;99623.75;;;2.44;100.00
65190;BME280;51777;53.570;9.984;2023-01-19T07:26:18;99613.56;;;2.44;100.00
65190;BME280;51777;53.570;9.984;2023-01-19T07:28:48;99621.56;;;2.50;100.00
65190;BME280;51777;53.570;9.984;2023-01-19T07:31:15;99622.16;;;2.43;100.00
65190;BME280;51777;53.570;9.984;2023-01-19T07:33:41;99632.91;;;2.46;100.00
65190;BME280;51777;53.570;9.984;2023-01-19T07:36:07;99632.69;;;2.49;100.00
65190;BME280;51777;53.570;9.984;2023-01-19T07:38:33;99635.25;;;2.49;100.00
65190;BME280;51777;53.570;9.984;2023-01-19T07:41:00;99643.94;;;2.47;100.00
65190;BME280;51777;53.570;9.984;2023-01-19T07:43:25;99624.00;;;2.41;100.00
65190;BME280;51777;53.570;9.984;2023-01-19T07:45:51;99638.13;;;2.45;100.00
65190;BME280;51777;53.570;9.984;2023-01-19T07:48:16;99639.88;;;2.44;100.00
65190;BME280;51777;53.570;9.984;2023-01-19T07:50:43;99639.97;;;2.54;100.00
65190;BME280;51777;53.570;9.984;2023-01-19T07:53:08;99645.31;;;2.51;100.00
65190;BME280;51777;53.570;9.984;2023-01-19T07:55:35;99648.22;;;2.46;100.00
65190;BME280;51777;53.570;9.984;2023-01-19T07:58:01;99658.41;;;2.46;100.00
65190;BME280;51777;53.570;9.984;2023-01-19T08:00:35;99660.25;;;2.55;100.00
65190;BME280;51777;53.570;9.984;2023-01-19T08:03:04;99666.72;;;2.59;100.00
65190;BME280;51777;53.570;9.984;2023-01-19T08:05:30;99667.75;;;2.68;100.00
65190;BME280;51777;53.570;9.984;2023-01-19T08:07:57;99692.84;;;2.63;100.00
65190;BME280;51777;53.570;9.984;2023-01-19T08:10:25;99677.19;;;2.56;100.00
65190;BME280;51777;53.570;9.984;2023-01-19T08:12:55;99683.78;;;2.59;100.00
65190;BME280;51777;53.570;9.984;2023-01-19T08:15:21;99670.09;;;2.60;100.00
65190;BME280;51777;53.570;9.984;2023-01-19T08:18:00;99676.09;;;2.70;100.00
65190;BME280;51777;53.570;9.984;2023-01-19T08:20:26;99675.03;;;2.73;100.00
65190;BME280;51777;53.570;9.984;2023-01-19T08:22:52;99686.44;;;2.69;100.00
65190;BME280;51777;53.570;9.984;2023-01-19T08:25:33;99688.38;;;2.76;100.00
65190;BME280;51777;53.570;9.984;2023-01-19T08:27:58;99686.53;;;2.78;100.00
65190;BME280;51777;53.570;9.984;2023-01-19T08:30:24;99688.81;;;2.81;100.00
65190;BME280;51777;53.570;9.984;2023-01-19T08:32:53;99688.53;;;2.95;100.00
65190;BME280;51777;53.570;9.984;2023-01-19T08:35:19;99688.53;;;2.95;100.00
65190;BME280;51777;53.570;9.984;2023-01-19T08:37:44;99692.34;;;3.01;100.00
65190;BME280;51777;53.570;9.984;2023-01-19T08:40:10;99702.44;;;3.03;100.00
65190;BME280;51777;53.570;9.984;2023-01-19T08:42:36;99702.19;;;3.06;100.00
65190;BME280;51777;53.570;9.984;2023-01-19T08:45:02;99711.34;;;3.08;100.00
65190;BME280;51777;53.570;9.984;2023-01-19T08:47:28;99706.81;;;3.12;100.00
65190;BME280;51777;53.570;9.984;2023-01-19T08:49:53;99709.78;;;3.17;100.00
65190;BME280;51777;53.570;9.984;2023-01-19T08:52:20;99714.66;;;3.20;100.00
65190;BME280;51777;53.570;9.984;2023-01-19T08:54:45;99717.97;;;3.32;100.00
65190;BME280;51777;53.570;9.984;2023-01-19T08:57:11;99715.53;;;3.30;100.00
65190;BME280;51777;53.570;9.984;2023-01-19T08:59:37;99727.31;;;3.42;100.00
65190;BME280;51777;53.570;9.984;2023-01-19T09:02:04;99731.00;;;3.49;100.00
65190;BME280;51777;53.570;9.984;2023-01-19T09:04:30;99727.00;;;3.57;100.00
65190;BME280;51777;53.570;9.984;2023-01-19T09:06:59;99731.84;;;3.60;100.00
65190;BME280;51777;53.570;9.984;2023-01-19T09:09:24;99728.56;;;3.48;100.00
65190;BME280;51777;53.570;9.984;2023-01-19T09:11:52;99732.56;;;3.62;100.00
65190;BME280;51777;53.570;9.984;2023-01-19T09:14:18;99735.13;;;3.62;100.00
65190;BME280;51777;53.570;9.984;2023-01-19T09:16:44;99739.91;;;3.55;100.00
65190;BME280;51777;53.570;9.984;2023-01-19T09:19:09;99737.41;;;3.44;100.00
65190;BME280;51777;53.570;9.984;2023-01-19T09:21:34;99735.41;;;3.27;100.00
65190;BME280;51777;53.570;9.984;2023-01-19T09:24:03;99741.75;;;3.32;100.00
65190;BME280;51777;53.570;9.984;2023-01-19T09:26:29;99734.16;;;3.21;100.00
65190;BME280;51777;53.570;9.984;2023-01-19T09:28:55;99741.81;;;3.21;100.00
65190;BME280;51777;53.570;9.984;2023-01-19T09:31:21;99746.56;;;3.26;100.00
65190;BME280;51777;53.570;9.984;2023-01-19T09:33:47;99745.56;;;3.17;100.00
65190;BME280;51777;53.570;9.984;2023-01-19T09:36:13;99743.00;;;3.17;100.00
65190;BME280;51777;53.570;9.984;2023-01-19T09:38:38;99751.84;;;3.13;100.00
65190;BME280;51777;53.570;9.984;2023-01-19T09:41:18;99751.03;;;3.12;100.00
65190;BME280;51777;53.570;9.984;2023-01-19T09:43:47;99761.56;;;3.19;100.00
65190;BME280;51777;53.570;9.984;2023-01-19T09:48:52;99768.75;;;3.25;100.00
65190;BME280;51777;53.570;9.984;2023-01-19T09:51:34;99772.19;;;3.35;100.00
65190;BME280;51777;53.570;9.984;2023-01-19T09:56:42;99777.34;;;3.45;100.00
65190;BME280;51777;53.570;9.984;2023-01-19T09:59:28;99775.97;;;3.41;100.00
65190;BME280;51777;53.570;9.984;2023-01-19T10:04:43;99788.91;;;3.60;100.00
65190;BME280;51777;53.570;9.984;2023-01-19T10:20:50;99800.16;;;3.58;100.00
65190;BME280;51777;53.570;9.984;2023-01-19T10:25:46;99797.63;;;3.58;100.00
65190;BME280;51777;53.570;9.984;2023-01-19T10:28:12;99795.88;;;3.58;100.00
65190;BME280;51777;53.570;9.984;2023-01-19T10:30:41;99796.69;;;3.59;100.00
65190;BME280;51777;53.570;9.984;2023-01-19T10:33:12;99808.66;;;3.58;100.00
65190;BME280;51777;53.570;9.984;2023-01-19T10:35:39;99799.19;;;3.70;100.00
65190;BME280;51777;53.570;9.984;2023-01-19T10:38:05;99807.09;;;3.67;100.00
65190;BME280;51777;53.570;9.984;2023-01-19T10:40:47;99807.31;;;3.75;100.00
65190;BME280;51777;53.570;9.984;2023-01-19T10:43:41;99810.84;;;3.83;100.00
65190;BME280;51777;53.570;9.984;2023-01-19T10:46:16;99826.13;;;3.74;100.00
65190;BME280;51777;53.570;9.984;2023-01-19T10:48:43;99813.47;;;3.72;100.00
65190;BME280;51777;53.570;9.984;2023-01-19T10:51:12;99818.59;;;3.72;100.00
65190;BME280;51777;53.570;9.984;2023-01-19T10:53:39;99822.06;;;3.50;100.00
65190;BME280;51777;53.570;9.984;2023-01-19T10:56:16;99823.97;;;3.58;100.00
65190;BME280;51777;53.570;9.984;2023-01-19T10:58:50;99822.19;;;3.49;100.00
65190;BME280;51777;53.570;9.984;2023-01-19T11:01:22;99826.22;;;3.51;100.00
65190;BME280;51777;53.570;9.984;2023-01-19T11:03:48;99825.97;;;3.54;100.00
65190;BME280;51777;53.570;9.984;2023-01-19T11:08:41;99830.16;;;3.56;100.00
65190;BME280;51777;53.570;9.984;2023-01-19T11:11:08;99833.53;;;3.56;100.00
65190;BME280;51777;53.570;9.984;2023-01-19T11:13:34;99831.66;;;3.58;100.00
65190;BME280;51777;53.570;9.984;2023-01-19T11:18:40;99830.84;;;3.58;100.00
65190;BME280;51777;53.570;9.984;2023-01-19T11:21:12;99832.72;;;3.56;100.00
65190;BME280;51777;53.570;9.984;2023-01-19T11:26:48;99834.84;;;3.50;100.00
65190;BME280;51777;53.570;9.984;2023-01-19T11:29:20;99840.88;;;3.49;100.00
65190;BME280;51777;53.570;9.984;2023-01-19T11:31:47;99831.66;;;3.58;100.00
65190;BME280;51777;53.570;9.984;2023-01-19T11:34:34;99830.91;;;3.67;100.00
65190;BME280;51777;53.570;9.984;2023-01-19T11:39:51;99839.44;;;3.57;100.00
65190;BME280;51777;53.570;9.984;2023-01-19T11:42:18;99825.81;;;3.67;100.00
65190;BME280;51777;53.570;9.984;2023-01-19T11:45:22;99827.84;;;3.52;100.00
65190;BME280;51777;53.570;9.984;2023-01-19T11:47:48;99826.41;;;3.60;100.00
65190;BME280;51777;53.570;9.984;2023-01-19T11:50:32;99839.03;;;3.72;100.00
65190;BME280;51777;53.570;9.984;2023-01-19T11:53:05;99839.28;;;3.69;100.00
65190;BME280;51777;53.570;9.984;2023-01-19T11:55:46;99846.00;;;3.70;100.00
65190;BME280;51777;53.570;9.984;2023-01-19T11:58:17;99836.59;;;3.71;100.00
65190;BME280;51777;53.570;9.984;2023-01-19T12:05:45;99842.44;;;3.82;100.00
65190;BME280;51777;53.570;9.984;2023-01-19T12:08:15;99836.22;;;3.75;100.00
65190;BME280;51777;53.570;9.984;2023-01-19T12:10:45;99843.47;;;3.91;100.00
65190;BME280;51777;53.570;9.984;2023-01-19T12:13:20;99842.00;;;3.57;100.00
65190;BME280;51777;53.570;9.984;2023-01-19T12:15:46;99841.06;;;3.58;100.00
65190;BME280;51777;53.570;9.984;2023-01-19T12:18:29;99845.88;;;3.72;100.00
65190;BME280;51777;53.570;9.984;2023-01-19T12:20:56;99849.56;;;3.79;100.00
65190;BME280;51777;53.570;9.984;2023-01-19T12:26:27;99856.81;;;3.74;100.00
65190;BME280;51777;53.570;9.984;2023-01-19T12:28:55;99851.69;;;3.74;100.00
65190;BME280;51777;53.570;9.984;2023-01-19T12:31:26;99853.53;;;3.72;100.00
65190;BME280;51777;53.570;9.984;2023-01-19T12:33:53;99856.00;;;3.73;100.00
65190;BME280;51777;53.570;9.984;2023-01-19T12:39:19;99865.22;;;3.65;100.00
65190;BME280;51777;53.570;9.984;2023-01-19T12:41:45;99861.41;;;3.80;100.00
65190;BME280;51777;53.570;9.984;2023-01-19T12:46:47;99859.88;;;3.57;100.00
65190;BME280;51777;53.570;9.984;2023-01-19T12:51:52;99876.28;;;3.54;100.00
65190;BME280;51777;53.570;9.984;2023-01-19T12:56:48;99870.88;;;3.47;100.00
65190;BME280;51777;53.570;9.984;2023-01-19T12:59:27;99877.00;;;3.45;100.00
65190;BME280;51777;53.570;9.984;2023-01-19T13:05:22;99880.66;;;3.63;100.00
65190;BME280;51777;53.570;9.984;2023-01-19T13:11:06;99884.94;;;3.74;100.00
65190;BME280;51777;53.570;9.984;2023-01-19T13:23:53;99879.53;;;3.88;100.00
65190;BME280;51777;53.570;9.984;2023-01-19T13:26:25;99886.00;;;3.92;100.00
65190;BME280;51777;53.570;9.984;2023-01-19T13:29:42;99887.13;;;3.99;100.00
65190;BME280;51777;53.570;9.984;2023-01-19T13:31:53;99888.75;;;4.00;100.00
65190;BME280;51777;53.570;9.984;2023-01-19T13:34:35;99890.97;;;3.94;100.00
65190;BME280;51777;53.570;9.984;2023-01-19T13:37:03;99896.22;;;3.92;100.00
65190;BME280;51777;53.570;9.984;2023-01-19T13:39:35;99899.13;;;3.99;100.00
65190;BME280;51777;53.570;9.984;2023-01-19T13:42:12;99905.91;;;4.09;100.00
65190;BME280;51777;53.570;9.984;2023-01-19T13:44:48;99907.91;;;4.06;100.00
65190;BME280;51777;53.570;9.984;2023-01-19T13:47:31;99906.41;;;4.03;100.00
65190;BME280;51777;53.570;9.984;2023-01-19T13:50:03;99907.34;;;4.02;100.00
65190;BME280;51777;53.570;9.984;2023-01-19T13:52:30;99911.09;;;3.98;100.00
65190;BME280;51777;53.570;9.984;2023-01-19T13:54:57;99905.22;;;4.07;100.00
65190;BME280;51777;53.570;9.984;2023-01-19T14:08:14;99928.78;;;3.90;100.00
65190;BME280;51777;53.570;9.984;2023-01-19T14:13:20;99934.53;;;4.03;100.00
65190;BME280;51777;53.570;9.984;2023-01-19T14:15:48;99939.81;;;4.23;100.00
65190;BME280;51777;53.570;9.984;2023-01-19T14:18:29;99941.91;;;4.18;100.00
65190;BME280;51777;53.570;9.984;2023-01-19T14:21:05;99944.22;;;4.21;100.00
65190;BME280;51777;53.570;9.984;2023-01-19T14:23:39;99943.59;;;4.28;100.00
65190;BME280;51777;53.570;9.984;2023-01-19T14:29:34;99955.59;;;4.28;100.00
65190;BME280;51777;53.570;9.984;2023-01-19T14:34:51;99961.13;;;4.33;100.00
65190;BME280;51777;53.570;9.984;2023-01-19T14:40:22;99968.69;;;4.13;100.00
65190;BME280;51777;53.570;9.984;2023-01-19T14:45:17;99977.13;;;4.25;100.00
65190;BME280;51777;53.570;9.984;2023-01-19T14:47:45;99979.94;;;4.22;100.00
65190;BME280;51777;53.570;9.984;2023-01-19T14:50:29;99983.09;;;4.15;100.00
65190;BME280;51777;53.570;9.984;2023-01-19T14:53:03;99980.16;;;4.19;100.00
65190;BME280;51777;53.570;9.984;2023-01-19T14:55:44;99983.09;;;4.15;100.00
65190;BME280;51777;53.570;9.984;2023-01-19T14:58:12;99982.88;;;4.06;100.00
65190;BME280;51777;53.570;9.984;2023-01-19T15:00:39;99996.00;;;4.13;100.00
65190;BME280;51777;53.570;9.984;2023-01-19T15:03:05;99988.94;;;4.05;100.00
65190;BME280;51777;53.570;9.984;2023-01-19T15:05:31;99988.50;;;4.00;100.00